sensor_id;sensor_type;location;lat;lon;timestamp;temperature;humidity
12481;DHT22;6305;48.398;11.762;2022-11-21T00:01:16;3.60;99.90
12481;DHT22;6305;48.398;11.762;2022-11-21T00:03:44;3.70;99.90
12481;DHT22;6305;48.398;11.762;2022-11-21T00:06:11;3.70;99.90
12481;DHT22;6305;48.398;11.762;2022-11-21T00:08:38;3.70;99.90
12481;DHT22;6305;48.398;11.762;2022-11-21T00:11:05;3.70;99.90
12481;DHT22;6305;48.398;11.762;2022-11-21T00:13:32;3.70;99.90
12481;DHT22;6305;48.398;11.762;2022-11-21T00:16:02;3.70;99.90
12481;DHT22;6305;48.398;11.762;2022-11-21T00:18:32;3.70;99.90
12481;DHT22;6305;48.398;11.762;2022-11-21T00:21:03;3.70;99.90
12481;DHT22;6305;48.398;11.762;2022-11-21T00:23:30;3.70;99.90
12481;DHT22;6305;48.398;11.762;2022-11-21T00:25:57;3.70;99.90
12481;DHT22;6305;48.398;11.762;2022-11-21T00:28:24;3.70;99.90
12481;DHT22;6305;48.398;11.762;2022-11-21T00:30:51;3.70;99.90
12481;DHT22;6305;48.398;11.762;2022-11-21T00:33:17;3.70;99.90
12481;DHT22;6305;48.398;11.762;2022-11-21T00:35:45;3.70;99.90
12481;DHT22;6305;48.398;11.762;2022-11-21T00:38:12;3.70;99.90
12481;DHT22;6305;48.398;11.762;2022-11-21T00:40:40;3.70;99.90
12481;DHT22;6305;48.398;11.762;2022-11-21T00:43:07;3.70;99.90
12481;DHT22;6305;48.398;11.762;2022-11-21T00:45:34;3.70;99.90
12481;DHT22;6305;48.398;11.762;2022-11-21T00:48:02;3.70;99.90
12481;DHT22;6305;48.398;11.762;2022-11-21T00:50:29;3.70;99.90
12481;DHT22;6305;48.398;11.762;2022-11-21T00:52:57;3.70;99.90
12481;DHT22;6305;48.398;11.762;2022-11-21T00:55:24;3.70;99.90
12481;DHT22;6305;48.398;11.762;2022-11-21T00:57:51;3.70;99.90
12481;DHT22;6305;48.398;11.762;2022-11-21T01:00:18;3.80;99.90
12481;DHT22;6305;48.398;11.762;2022-11-21T01:02:45;3.70;99.90
12481;DHT22;6305;48.398;11.762;2022-11-21T01:05:12;3.80;99.90
12481;DHT22;6305;48.398;11.762;2022-11-21T01:07:38;3.70;99.90
12481;DHT22;6305;48.398;11.762;2022-11-21T01:10:07;3.80;99.90
12481;DHT22;6305;48.398;11.762;2022-11-21T01:12:34;3.70;99.90
12481;DHT22;6305;48.398;11.762;2022-11-21T01:15:01;3.70;99.90
12481;DHT22;6305;48.398;11.762;2022-11-21T01:17:27;3.70;99.90
12481;DHT22;6305;48.398;11.762;2022-11-21T01:19:57;3.70;99.90
12481;DHT22;6305;48.398;11.762;2022-11-21T01:22:24;3.60;99.90
12481;DHT22;6305;48.398;11.762;2022-11-21T01:24:50;3.60;99.90
12481;DHT22;6305;48.398;11.762;2022-11-21T01:27:18;3.60;99.90
12481;DHT22;6305;48.398;11.762;2022-11-21T01:29:45;3.70;99.90
12481;DHT22;6305;48.398;11.762;2022-11-21T01:32:12;3.70;99.90
12481;DHT22;6305;48.398;11.762;2022-11-21T01:34:39;3.80;99.90
12481;DHT22;6305;48.398;11.762;2022-11-21T01:37:05;3.80;99.90
12481;DHT22;6305;48.398;11.762;2022-11-21T01:39:32;3.80;99.90
12481;DHT22;6305;48.398;11.762;2022-11-21T01:41:59;3.80;99.90
12481;DHT22;6305;48.398;11.762;2022-11-21T01:44:46;3.70;99.90
12481;DHT22;6305;48.398;11.762;2022-11-21T01:47:13;3.60;99.90
12481;DHT22;6305;48.398;11.762;2022-11-21T01:49:41;3.50;99.90
12481;DHT22;6305;48.398;11.762;2022-11-21T01:52:12;3.40;99.90
12481;DHT22;6305;48.398;11.762;2022-11-21T01:54:43;3.30;99.90
12481;DHT22;6305;48.398;11.762;2022-11-21T01:57:13;3.30;99.90
12481;DHT22;6305;48.398;11.762;2022-11-21T01:59:46;3.30;99.90
12481;DHT22;6305;48.398;11.762;2022-11-21T02:02:17;3.40;99.90
12481;DHT22;6305;48.398;11.762;2022-11-21T02:04:46;3.50;99.90
12481;DHT22;6305;48.398;11.762;2022-11-21T02:07:15;3.50;99.90
12481;DHT22;6305;48.398;11.762;2022-11-21T02:09:48;3.40;99.90
12481;DHT22;6305;48.398;11.762;2022-11-21T02:12:21;3.20;99.90
12481;DHT22;6305;48.398;11.762;2022-11-21T02:14:51;3.10;99.90
12481;DHT22;6305;48.398;11.762;2022-11-21T02:17:18;3.00;99.90
12481;DHT22;6305;48.398;11.762;2022-11-21T02:19:50;3.00;99.90
12481;DHT22;6305;48.398;11.762;2022-11-21T02:22:25;2.90;99.90
12481;DHT22;6305;48.398;11.762;2022-11-21T02:25:06;3.00;99.90
12481;DHT22;6305;48.398;11.762;2022-11-21T02:27:33;3.00;99.90
12481;DHT22;6305;48.398;11.762;2022-11-21T02:30:00;3.10;99.90
12481;DHT22;6305;48.398;11.762;2022-11-21T02:32:33;3.10;99.90
12481;DHT22;6305;48.398;11.762;2022-11-21T02:35:00;3.10;99.90
12481;DHT22;6305;48.398;11.762;2022-11-21T02:37:28;3.20;99.90
12481;DHT22;6305;48.398;11.762;2022-11-21T02:39:56;3.30;99.90
12481;DHT22;6305;48.398;11.762;2022-11-21T02:42:29;3.40;99.90
12481;DHT22;6305;48.398;11.762;2022-11-21T02:45:05;3.50;99.90
12481;DHT22;6305;48.398;11.762;2022-11-21T02:47:34;3.60;99.90
12481;DHT22;6305;48.398;11.762;2022-11-21T02:50:10;3.60;99.90
12481;DHT22;6305;48.398;11.762;2022-11-21T02:52:38;3.60;99.90
12481;DHT22;6305;48.398;11.762;2022-11-21T02:55:06;3.50;99.90
12481;DHT22;6305;48.398;11.762;2022-11-21T02:57:34;3.30;99.90
12481;DHT22;6305;48.398;11.762;2022-11-21T03:00:01;3.20;99.90
12481;DHT22;6305;48.398;11.762;2022-11-21T03:02:28;3.10;99.90
12481;DHT22;6305;48.398;11.762;2022-11-21T03:04:55;3.00;99.90
12481;DHT22;6305;48.398;11.762;2022-11-21T03:07:21;3.00;99.90
12481;DHT22;6305;48.398;11.762;2022-11-21T03:09:51;3.00;99.90
12481;DHT22;6305;48.398;11.762;2022-11-21T03:12:17;3.00;99.90
12481;DHT22;6305;48.398;11.762;2022-11-21T03:14:46;3.00;99.90
12481;DHT22;6305;48.398;11.762;2022-11-21T03:17:12;3.10;99.90
12481;DHT22;6305;48.398;11.762;2022-11-21T03:19:40;3.10;99.90
12481;DHT22;6305;48.398;11.762;2022-11-21T03:22:07;3.10;99.90
12481;DHT22;6305;48.398;11.762;2022-11-21T03:24:33;3.10;99.90
12481;DHT22;6305;48.398;11.762;2022-11-21T03:27:00;3.00;99.90
12481;DHT22;6305;48.398;11.762;2022-11-21T03:29:27;3.00;99.90
12481;DHT22;6305;48.398;11.762;2022-11-21T03:31:55;2.90;99.90
12481;DHT22;6305;48.398;11.762;2022-11-21T03:34:22;3.00;99.90
12481;DHT22;6305;48.398;11.762;2022-11-21T03:36:51;3.00;99.90
12481;DHT22;6305;48.398;11.762;2022-11-21T03:39:20;3.00;99.90
12481;DHT22;6305;48.398;11.762;2022-11-21T03:41:47;3.00;99.90
12481;DHT22;6305;48.398;11.762;2022-11-21T03:44:14;2.90;99.90
12481;DHT22;6305;48.398;11.762;2022-11-21T03:46:45;2.80;99.90
12481;DHT22;6305;48.398;11.762;2022-11-21T03:49:13;2.80;99.90
12481;DHT22;6305;48.398;11.762;2022-11-21T03:51:41;2.70;99.90
12481;DHT22;6305;48.398;11.762;2022-11-21T03:54:09;2.70;99.90
12481;DHT22;6305;48.398;11.762;2022-11-21T03:56:36;2.70;99.90
12481;DHT22;6305;48.398;11.762;2022-11-21T03:59:04;2.70;99.90
12481;DHT22;6305;48.398;11.762;2022-11-21T04:01:31;2.70;99.90
12481;DHT22;6305;48.398;11.762;2022-11-21T04:03:58;2.60;99.90
12481;DHT22;6305;48.398;11.762;2022-11-21T04:06:26;2.60;99.90
12481;DHT22;6305;48.398;11.762;2022-11-21T04:08:55;2.60;99.90
12481;DHT22;6305;48.398;11.762;2022-11-21T04:11:22;2.60;99.90
12481;DHT22;6305;48.398;11.762;2022-11-21T04:13:49;2.60;99.90
12481;DHT22;6305;48.398;11.762;2022-11-21T04:16:16;2.60;99.90
12481;DHT22;6305;48.398;11.762;2022-11-21T04:18:42;2.70;99.90
12481;DHT22;6305;48.398;11.762;2022-11-21T04:21:09;2.80;99.90
12481;DHT22;6305;48.398;11.762;2022-11-21T04:23:38;2.80;99.90
12481;DHT22;6305;48.398;11.762;2022-11-21T04:26:05;2.90;99.90
12481;DHT22;6305;48.398;11.762;2022-11-21T04:28:31;3.00;99.90
12481;DHT22;6305;48.398;11.762;2022-11-21T04:31:02;3.00;99.90
12481;DHT22;6305;48.398;11.762;2022-11-21T04:33:29;3.10;99.90
12481;DHT22;6305;48.398;11.762;2022-11-21T04:35:55;3.20;99.90
12481;DHT22;6305;48.398;11.762;2022-11-21T04:38:22;3.30;99.90
12481;DHT22;6305;48.398;11.762;2022-11-21T04:40:51;3.30;99.90
12481;DHT22;6305;48.398;11.762;2022-11-21T04:43:18;3.40;99.90
12481;DHT22;6305;48.398;11.762;2022-11-21T04:45:44;3.40;99.90
12481;DHT22;6305;48.398;11.762;2022-11-21T04:48:11;3.50;99.90
12481;DHT22;6305;48.398;11.762;2022-11-21T04:50:38;3.50;99.90
12481;DHT22;6305;48.398;11.762;2022-11-21T04:53:05;3.60;99.90
12481;DHT22;6305;48.398;11.762;2022-11-21T04:55:32;3.60;99.90
12481;DHT22;6305;48.398;11.762;2022-11-21T04:58:00;3.70;99.90
12481;DHT22;6305;48.398;11.762;2022-11-21T05:00:27;3.70;99.90
12481;DHT22;6305;48.398;11.762;2022-11-21T05:02:54;3.70;99.90
12481;DHT22;6305;48.398;11.762;2022-11-21T05:05:21;3.80;99.90
12481;DHT22;6305;48.398;11.762;2022-11-21T05:07:48;3.80;99.90
12481;DHT22;6305;48.398;11.762;2022-11-21T05:10:15;3.80;99.90
12481;DHT22;6305;48.398;11.762;2022-11-21T05:12:41;3.80;99.90
12481;DHT22;6305;48.398;11.762;2022-11-21T05:15:27;3.80;99.90
12481;DHT22;6305;48.398;11.762;2022-11-21T05:17:58;3.80;99.90
12481;DHT22;6305;48.398;11.762;2022-11-21T05:20:26;3.80;99.90
12481;DHT22;6305;48.398;11.762;2022-11-21T05:22:53;3.70;99.90
12481;DHT22;6305;48.398;11.762;2022-11-21T05:25:20;3.60;99.90
12481;DHT22;6305;48.398;11.762;2022-11-21T05:27:47;3.40;99.90
12481;DHT22;6305;48.398;11.762;2022-11-21T05:30:14;3.40;99.90
12481;DHT22;6305;48.398;11.762;2022-11-21T05:32:43;3.30;99.90
12481;DHT22;6305;48.398;11.762;2022-11-21T05:35:10;3.30;99.90
12481;DHT22;6305;48.398;11.762;2022-11-21T05:37:39;3.20;99.90
12481;DHT22;6305;48.398;11.762;2022-11-21T05:40:07;3.20;99.90
12481;DHT22;6305;48.398;11.762;2022-11-21T05:42:37;3.20;99.90
12481;DHT22;6305;48.398;11.762;2022-11-21T05:45:22;3.30;99.90
12481;DHT22;6305;48.398;11.762;2022-11-21T05:47:50;3.30;99.90
12481;DHT22;6305;48.398;11.762;2022-11-21T05:50:17;3.30;99.90
12481;DHT22;6305;48.398;11.762;2022-11-21T05:52:44;3.30;99.90
12481;DHT22;6305;48.398;11.762;2022-11-21T05:55:11;3.30;99.90
12481;DHT22;6305;48.398;11.762;2022-11-21T05:57:38;3.40;99.90
12481;DHT22;6305;48.398;11.762;2022-11-21T06:00:06;3.40;99.90
12481;DHT22;6305;48.398;11.762;2022-11-21T06:02:35;3.40;99.90
12481;DHT22;6305;48.398;11.762;2022-11-21T06:05:21;3.50;99.90
12481;DHT22;6305;48.398;11.762;2022-11-21T06:07:52;3.50;99.90
12481;DHT22;6305;48.398;11.762;2022-11-21T06:10:24;3.50;99.90
12481;DHT22;6305;48.398;11.762;2022-11-21T06:12:53;3.50;99.90
12481;DHT22;6305;48.398;11.762;2022-11-21T06:15:20;3.50;99.90
12481;DHT22;6305;48.398;11.762;2022-11-21T06:17:46;3.60;99.90
12481;DHT22;6305;48.398;11.762;2022-11-21T06:20:14;3.60;99.90
12481;DHT22;6305;48.398;11.762;2022-11-21T06:22:42;3.60;99.90
12481;DHT22;6305;48.398;11.762;2022-11-21T06:25:09;3.60;99.90
12481;DHT22;6305;48.398;11.762;2022-11-21T06:27:36;3.60;99.90
12481;DHT22;6305;48.398;11.762;2022-11-21T06:30:03;3.60;99.90
12481;DHT22;6305;48.398;11.762;2022-11-21T06:32:35;3.70;99.90
12481;DHT22;6305;48.398;11.762;2022-11-21T06:35:03;3.60;99.90
12481;DHT22;6305;48.398;11.762;2022-11-21T06:37:30;3.60;99.90
12481;DHT22;6305;48.398;11.762;2022-11-21T06:39:58;3.60;99.90
12481;DHT22;6305;48.398;11.762;2022-11-21T06:42:25;3.60;99.90
12481;DHT22;6305;48.398;11.762;2022-11-21T06:44:52;3.60;99.90
12481;DHT22;6305;48.398;11.762;2022-11-21T06:47:19;3.60;99.90
12481;DHT22;6305;48.398;11.762;2022-11-21T06:49:46;3.60;99.90
12481;DHT22;6305;48.398;11.762;2022-11-21T06:52:13;3.60;99.90
12481;DHT22;6305;48.398;11.762;2022-11-21T06:54:40;3.50;99.90
12481;DHT22;6305;48.398;11.762;2022-11-21T06:57:08;3.40;99.90
12481;DHT22;6305;48.398;11.762;2022-11-21T06:59:34;3.40;99.90
12481;DHT22;6305;48.398;11.762;2022-11-21T07:02:01;3.50;99.90
12481;DHT22;6305;48.398;11.762;2022-11-21T07:04:28;3.50;99.90
12481;DHT22;6305;48.398;11.762;2022-11-21T07:06:55;3.60;99.90
12481;DHT22;6305;48.398;11.762;2022-11-21T07:09:22;3.60;99.90
12481;DHT22;6305;48.398;11.762;2022-11-21T07:11:48;3.70;99.90
12481;DHT22;6305;48.398;11.762;2022-11-21T07:14:17;3.70;99.90
12481;DHT22;6305;48.398;11.762;2022-11-21T07:16:43;3.70;99.90
12481;DHT22;6305;48.398;11.762;2022-11-21T07:19:10;3.70;99.90
12481;DHT22;6305;48.398;11.762;2022-11-21T07:21:37;3.80;99.90
12481;DHT22;6305;48.398;11.762;2022-11-21T07:24:05;3.80;99.90
12481;DHT22;6305;48.398;11.762;2022-11-21T07:26:31;3.90;99.90
12481;DHT22;6305;48.398;11.762;2022-11-21T07:28:58;4.00;99.90
12481;DHT22;6305;48.398;11.762;2022-11-21T07:31:27;4.20;99.90
12481;DHT22;6305;48.398;11.762;2022-11-21T07:33:53;4.60;99.90
12481;DHT22;6305;48.398;11.762;2022-11-21T07:36:20;4.70;99.90
12481;DHT22;6305;48.398;11.762;2022-11-21T07:38:47;4.70;99.90
12481;DHT22;6305;48.398;11.762;2022-11-21T07:41:14;4.70;99.90
12481;DHT22;6305;48.398;11.762;2022-11-21T07:43:41;4.70;99.90
12481;DHT22;6305;48.398;11.762;2022-11-21T07:46:07;4.60;99.90
12481;DHT22;6305;48.398;11.762;2022-11-21T07:48:36;4.50;99.90
12481;DHT22;6305;48.398;11.762;2022-11-21T07:51:04;4.50;99.90
12481;DHT22;6305;48.398;11.762;2022-11-21T07:53:31;4.50;99.90
12481;DHT22;6305;48.398;11.762;2022-11-21T07:55:58;4.50;99.90
12481;DHT22;6305;48.398;11.762;2022-11-21T07:58:25;4.60;99.90
12481;DHT22;6305;48.398;11.762;2022-11-21T08:00:52;4.50;99.90
12481;DHT22;6305;48.398;11.762;2022-11-21T08:03:18;4.60;99.90
12481;DHT22;6305;48.398;11.762;2022-11-21T08:05:47;4.60;99.90
12481;DHT22;6305;48.398;11.762;2022-11-21T08:08:14;4.60;99.90
12481;DHT22;6305;48.398;11.762;2022-11-21T08:10:42;4.60;99.90
12481;DHT22;6305;48.398;11.762;2022-11-21T08:13:10;4.60;99.90
12481;DHT22;6305;48.398;11.762;2022-11-21T08:15:37;4.80;99.90
12481;DHT22;6305;48.398;11.762;2022-11-21T08:18:08;5.10;99.90
12481;DHT22;6305;48.398;11.762;2022-11-21T08:20:35;5.40;99.90
12481;DHT22;6305;48.398;11.762;2022-11-21T08:23:04;5.60;99.90
12481;DHT22;6305;48.398;11.762;2022-11-21T08:25:31;5.70;99.90
12481;DHT22;6305;48.398;11.762;2022-11-21T08:27:58;5.70;99.90
12481;DHT22;6305;48.398;11.762;2022-11-21T08:30:27;5.60;99.90
12481;DHT22;6305;48.398;11.762;2022-11-21T08:32:55;5.60;99.90
12481;DHT22;6305;48.398;11.762;2022-11-21T08:35:22;5.90;99.90
12481;DHT22;6305;48.398;11.762;2022-11-21T08:37:54;7.00;99.90
12481;DHT22;6305;48.398;11.762;2022-11-21T08:40:23;7.20;99.90
12481;DHT22;6305;48.398;11.762;2022-11-21T08:42:55;8.60;99.90
12481;DHT22;6305;48.398;11.762;2022-11-21T08:45:22;10.60;99.90
12481;DHT22;6305;48.398;11.762;2022-11-21T08:47:49;11.40;99.90
12481;DHT22;6305;48.398;11.762;2022-11-21T08:50:16;10.90;99.90
12481;DHT22;6305;48.398;11.762;2022-11-21T08:52:42;9.70;99.90
12481;DHT22;6305;48.398;11.762;2022-11-21T08:55:09;8.70;99.90
12481;DHT22;6305;48.398;11.762;2022-11-21T08:57:38;8.10;99.90
12481;DHT22;6305;48.398;11.762;2022-11-21T09:00:07;8.20;99.90
12481;DHT22;6305;48.398;11.762;2022-11-21T09:02:34;8.20;99.90
12481;DHT22;6305;48.398;11.762;2022-11-21T09:05:01;7.80;99.90
12481;DHT22;6305;48.398;11.762;2022-11-21T09:07:28;7.90;99.90
12481;DHT22;6305;48.398;11.762;2022-11-21T09:09:55;8.90;99.90
12481;DHT22;6305;48.398;11.762;2022-11-21T09:12:22;9.40;99.90
12481;DHT22;6305;48.398;11.762;2022-11-21T09:14:50;9.60;99.90
12481;DHT22;6305;48.398;11.762;2022-11-21T09:17:34;9.50;99.90
12481;DHT22;6305;48.398;11.762;2022-11-21T09:20:19;9.20;99.90
12481;DHT22;6305;48.398;11.762;2022-11-21T09:22:46;8.70;99.90
12481;DHT22;6305;48.398;11.762;2022-11-21T09:25:13;8.70;99.90
12481;DHT22;6305;48.398;11.762;2022-11-21T09:27:40;8.80;99.90
12481;DHT22;6305;48.398;11.762;2022-11-21T09:30:10;8.80;99.90
12481;DHT22;6305;48.398;11.762;2022-11-21T09:32:37;8.90;99.90
12481;DHT22;6305;48.398;11.762;2022-11-21T09:35:05;10.50;99.90
12481;DHT22;6305;48.398;11.762;2022-11-21T09:37:35;12.00;99.90
12481;DHT22;6305;48.398;11.762;2022-11-21T09:40:02;13.10;99.90
12481;DHT22;6305;48.398;11.762;2022-11-21T09:42:51;14.00;99.90
12481;DHT22;6305;48.398;11.762;2022-11-21T09:45:25;16.10;92.40
12481;DHT22;6305;48.398;11.762;2022-11-21T09:47:52;16.30;80.80
12481;DHT22;6305;48.398;11.762;2022-11-21T09:50:26;17.50;76.50
12481;DHT22;6305;48.398;11.762;2022-11-21T09:52:59;18.30;66.70
12481;DHT22;6305;48.398;11.762;2022-11-21T09:55:35;18.60;63.90
12481;DHT22;6305;48.398;11.762;2022-11-21T09:58:05;18.40;60.00
12481;DHT22;6305;48.398;11.762;2022-11-21T10:00:33;16.00;57.40
12481;DHT22;6305;48.398;11.762;2022-11-21T10:03:00;14.00;60.70
12481;DHT22;6305;48.398;11.762;2022-11-21T10:05:34;12.70;67.10
12481;DHT22;6305;48.398;11.762;2022-11-21T10:08:10;12.50;75.80
12481;DHT22;6305;48.398;11.762;2022-11-21T10:10:52;13.90;84.50
12481;DHT22;6305;48.398;11.762;2022-11-21T10:13:31;16.40;72.70
12481;DHT22;6305;48.398;11.762;2022-11-21T10:16:08;18.30;65.50
12481;DHT22;6305;48.398;11.762;2022-11-21T10:19:00;19.40;60.90
12481;DHT22;6305;48.398;11.762;2022-11-21T10:21:47;20.60;55.70
12481;DHT22;6305;48.398;11.762;2022-11-21T10:24:30;20.50;50.90
12481;DHT22;6305;48.398;11.762;2022-11-21T10:27:03;19.40;49.80
12481;DHT22;6305;48.398;11.762;2022-11-21T10:29:34;16.80;51.60
12481;DHT22;6305;48.398;11.762;2022-11-21T10:32:12;16.40;56.50
12481;DHT22;6305;48.398;11.762;2022-11-21T10:34:41;17.20;55.80
12481;DHT22;6305;48.398;11.762;2022-11-21T10:37:13;16.50;56.00
12481;DHT22;6305;48.398;11.762;2022-11-21T10:39:43;16.10;56.40
12481;DHT22;6305;48.398;11.762;2022-11-21T10:42:15;15.20;56.40
12481;DHT22;6305;48.398;11.762;2022-11-21T10:44:43;15.00;59.70
12481;DHT22;6305;48.398;11.762;2022-11-21T10:47:32;16.10;60.00
12481;DHT22;6305;48.398;11.762;2022-11-21T10:50:17;17.50;59.00
12481;DHT22;6305;48.398;11.762;2022-11-21T10:52:48;18.30;53.10
12481;DHT22;6305;48.398;11.762;2022-11-21T10:55:16;16.60;53.20
12481;DHT22;6305;48.398;11.762;2022-11-21T10:57:45;16.80;53.40
12481;DHT22;6305;48.398;11.762;2022-11-21T11:00:20;15.70;53.90
12481;DHT22;6305;48.398;11.762;2022-11-21T11:03:01;14.40;55.50
12481;DHT22;6305;48.398;11.762;2022-11-21T11:05:30;12.90;59.50
12481;DHT22;6305;48.398;11.762;2022-11-21T11:08:05;13.20;64.40
12481;DHT22;6305;48.398;11.762;2022-11-21T11:10:34;15.10;69.30
12481;DHT22;6305;48.398;11.762;2022-11-21T11:13:01;17.70;59.20
12481;DHT22;6305;48.398;11.762;2022-11-21T11:15:55;19.10;52.20
12481;DHT22;6305;48.398;11.762;2022-11-21T11:18:25;19.50;49.90
12481;DHT22;6305;48.398;11.762;2022-11-21T11:21:12;19.30;47.80
12481;DHT22;6305;48.398;11.762;2022-11-21T11:23:39;19.20;47.90
12481;DHT22;6305;48.398;11.762;2022-11-21T11:26:22;19.80;46.80
12481;DHT22;6305;48.398;11.762;2022-11-21T11:28:49;19.80;46.70
12481;DHT22;6305;48.398;11.762;2022-11-21T11:31:16;20.10;44.90
12481;DHT22;6305;48.398;11.762;2022-11-21T11:33:52;20.20;45.60
12481;DHT22;6305;48.398;11.762;2022-11-21T11:36:35;20.70;45.30
12481;DHT22;6305;48.398;11.762;2022-11-21T11:39:14;21.40;44.10
12481;DHT22;6305;48.398;11.762;2022-11-21T11:45:13;23.10;40.60
12481;DHT22;6305;48.398;11.762;2022-11-21T11:48:09;23.30;39.80
12481;DHT22;6305;48.398;11.762;2022-11-21T11:50:40;23.80;38.70
12481;DHT22;6305;48.398;11.762;2022-11-21T11:53:12;24.00;37.70
12481;DHT22;6305;48.398;11.762;2022-11-21T11:55:44;24.30;37.50
12481;DHT22;6305;48.398;11.762;2022-11-21T11:58:18;23.70;36.00
12481;DHT22;6305;48.398;11.762;2022-11-21T12:00:50;21.40;38.30
12481;DHT22;6305;48.398;11.762;2022-11-21T12:03:20;18.80;40.20
12481;DHT22;6305;48.398;11.762;2022-11-21T12:05:58;16.40;44.30
12481;DHT22;6305;48.398;11.762;2022-11-21T12:08:37;14.20;48.40
12481;DHT22;6305;48.398;11.762;2022-11-21T12:11:17;12.70;52.20
12481;DHT22;6305;48.398;11.762;2022-11-21T12:14:21;11.80;55.50
12481;DHT22;6305;48.398;11.762;2022-11-21T12:17:12;13.00;57.90
12481;DHT22;6305;48.398;11.762;2022-11-21T12:19:41;14.70;55.60
12481;DHT22;6305;48.398;11.762;2022-11-21T12:22:09;16.50;53.10
12481;DHT22;6305;48.398;11.762;2022-11-21T12:24:37;17.90;49.50
12481;DHT22;6305;48.398;11.762;2022-11-21T12:27:10;18.90;45.90
12481;DHT22;6305;48.398;11.762;2022-11-21T12:29:52;19.60;44.20
12481;DHT22;6305;48.398;11.762;2022-11-21T12:32:33;19.50;42.00
12481;DHT22;6305;48.398;11.762;2022-11-21T12:35:20;16.80;42.80
12481;DHT22;6305;48.398;11.762;2022-11-21T12:37:58;13.90;47.50
12481;DHT22;6305;48.398;11.762;2022-11-21T12:40:37;11.90;52.00
12481;DHT22;6305;48.398;11.762;2022-11-21T12:43:20;10.60;55.60
12481;DHT22;6305;48.398;11.762;2022-11-21T12:45:53;9.80;59.90
12481;DHT22;6305;48.398;11.762;2022-11-21T12:48:39;9.60;63.10
12481;DHT22;6305;48.398;11.762;2022-11-21T12:51:57;9.40;65.20
12481;DHT22;6305;48.398;11.762;2022-11-21T12:57:48;12.90;66.90
12481;DHT22;6305;48.398;11.762;2022-11-21T13:00:23;14.60;58.70
12481;DHT22;6305;48.398;11.762;2022-11-21T13:03:20;16.50;55.00
12481;DHT22;6305;48.398;11.762;2022-11-21T13:05:50;18.30;50.70
12481;DHT22;6305;48.398;11.762;2022-11-21T13:08:22;19.40;46.50
12481;DHT22;6305;48.398;11.762;2022-11-21T13:10:57;19.40;44.20
12481;DHT22;6305;48.398;11.762;2022-11-21T13:13:41;19.70;44.10
12481;DHT22;6305;48.398;11.762;2022-11-21T13:16:14;19.70;43.30
12481;DHT22;6305;48.398;11.762;2022-11-21T13:19:02;20.40;42.30
12481;DHT22;6305;48.398;11.762;2022-11-21T13:21:41;20.80;41.10
12481;DHT22;6305;48.398;11.762;2022-11-21T13:24:08;21.10;40.80
12481;DHT22;6305;48.398;11.762;2022-11-21T13:26:52;21.50;39.90
12481;DHT22;6305;48.398;11.762;2022-11-21T13:29:19;21.70;39.10
12481;DHT22;6305;48.398;11.762;2022-11-21T13:31:46;21.60;37.80
12481;DHT22;6305;48.398;11.762;2022-11-21T13:34:33;21.10;37.50
12481;DHT22;6305;48.398;11.762;2022-11-21T13:37:01;20.20;38.70
12481;DHT22;6305;48.398;11.762;2022-11-21T13:39:30;20.10;40.30
12481;DHT22;6305;48.398;11.762;2022-11-21T13:42:00;20.30;40.00
12481;DHT22;6305;48.398;11.762;2022-11-21T13:44:45;20.70;39.50
12481;DHT22;6305;48.398;11.762;2022-11-21T13:47:34;20.80;39.00
12481;DHT22;6305;48.398;11.762;2022-11-21T13:50:08;19.90;39.20
12481;DHT22;6305;48.398;11.762;2022-11-21T13:52:44;18.70;40.40
12481;DHT22;6305;48.398;11.762;2022-11-21T13:55:30;18.00;42.00
12481;DHT22;6305;48.398;11.762;2022-11-21T13:58:13;17.10;43.40
12481;DHT22;6305;48.398;11.762;2022-11-21T14:00:59;16.80;45.00
12481;DHT22;6305;48.398;11.762;2022-11-21T14:03:51;16.70;45.50
12481;DHT22;6305;48.398;11.762;2022-11-21T14:06:32;17.40;45.60
12481;DHT22;6305;48.398;11.762;2022-11-21T14:09:24;18.10;44.60
12481;DHT22;6305;48.398;11.762;2022-11-21T14:11:57;18.70;43.10
12481;DHT22;6305;48.398;11.762;2022-11-21T14:14:35;19.20;41.90
12481;DHT22;6305;48.398;11.762;2022-11-21T14:17:13;19.30;40.80
12481;DHT22;6305;48.398;11.762;2022-11-21T14:19:42;19.40;40.80
12481;DHT22;6305;48.398;11.762;2022-11-21T14:22:15;19.10;40.20
12481;DHT22;6305;48.398;11.762;2022-11-21T14:24:43;17.80;40.60
12481;DHT22;6305;48.398;11.762;2022-11-21T14:27:15;15.80;42.50
12481;DHT22;6305;48.398;11.762;2022-11-21T14:29:48;14.10;45.40
12481;DHT22;6305;48.398;11.762;2022-11-21T14:32:15;12.80;48.60
12481;DHT22;6305;48.398;11.762;2022-11-21T14:34:42;12.70;50.70
12481;DHT22;6305;48.398;11.762;2022-11-21T14:37:12;13.20;51.20
12481;DHT22;6305;48.398;11.762;2022-11-21T14:39:39;13.70;50.50
12481;DHT22;6305;48.398;11.762;2022-11-21T14:42:11;14.10;49.60
12481;DHT22;6305;48.398;11.762;2022-11-21T14:44:39;13.80;48.70
12481;DHT22;6305;48.398;11.762;2022-11-21T14:47:13;13.40;49.10
12481;DHT22;6305;48.398;11.762;2022-11-21T14:49:48;12.90;49.70
12481;DHT22;6305;48.398;11.762;2022-11-21T14:52:18;12.00;50.50
12481;DHT22;6305;48.398;11.762;2022-11-21T14:54:50;11.00;51.90
12481;DHT22;6305;48.398;11.762;2022-11-21T14:57:21;9.90;54.80
12481;DHT22;6305;48.398;11.762;2022-11-21T14:59:49;9.00;57.20
12481;DHT22;6305;48.398;11.762;2022-11-21T15:02:20;8.30;60.40
12481;DHT22;6305;48.398;11.762;2022-11-21T15:04:48;7.70;66.30
12481;DHT22;6305;48.398;11.762;2022-11-21T15:07:18;7.20;73.10
12481;DHT22;6305;48.398;11.762;2022-11-21T15:09:46;6.70;79.20
12481;DHT22;6305;48.398;11.762;2022-11-21T15:12:18;6.20;86.60
12481;DHT22;6305;48.398;11.762;2022-11-21T15:14:48;5.90;92.20
12481;DHT22;6305;48.398;11.762;2022-11-21T15:17:19;5.70;95.20
12481;DHT22;6305;48.398;11.762;2022-11-21T15:20:02;5.50;98.70
12481;DHT22;6305;48.398;11.762;2022-11-21T15:22:32;5.40;99.90
12481;DHT22;6305;48.398;11.762;2022-11-21T15:25:05;5.30;99.90
12481;DHT22;6305;48.398;11.762;2022-11-21T15:27:34;5.10;99.90
12481;DHT22;6305;48.398;11.762;2022-11-21T15:30:18;5.00;99.90
12481;DHT22;6305;48.398;11.762;2022-11-21T15:33:08;4.80;99.90
12481;DHT22;6305;48.398;11.762;2022-11-21T15:35:54;4.60;99.90
12481;DHT22;6305;48.398;11.762;2022-11-21T15:38:27;4.40;99.90
12481;DHT22;6305;48.398;11.762;2022-11-21T15:43:47;4.00;99.90
12481;DHT22;6305;48.398;11.762;2022-11-21T15:46:16;3.80;99.90
12481;DHT22;6305;48.398;11.762;2022-11-21T15:48:46;3.60;99.90
12481;DHT22;6305;48.398;11.762;2022-11-21T15:51:14;3.50;99.90
12481;DHT22;6305;48.398;11.762;2022-11-21T15:53:41;3.30;99.90
12481;DHT22;6305;48.398;11.762;2022-11-21T15:56:10;3.40;99.90
12481;DHT22;6305;48.398;11.762;2022-11-21T15:58:37;3.40;99.90
12481;DHT22;6305;48.398;11.762;2022-11-21T16:01:04;3.40;99.90
12481;DHT22;6305;48.398;11.762;2022-11-21T16:03:31;3.30;99.90
12481;DHT22;6305;48.398;11.762;2022-11-21T16:06:00;3.10;99.90
12481;DHT22;6305;48.398;11.762;2022-11-21T16:08:27;3.10;99.90
12481;DHT22;6305;48.398;11.762;2022-11-21T16:10:54;3.20;99.90
12481;DHT22;6305;48.398;11.762;2022-11-21T16:13:21;3.10;99.90
12481;DHT22;6305;48.398;11.762;2022-11-21T16:15:48;3.00;99.90